Time;durP1;ratioP1;P1;durP2;ratioP2;P2;SDS_P1;SDS_P2;PMS_P1;PMS_P2;Temp;Humidity;BMP_temperature;BMP_pressure;BME280_temperature;BME280_humidity;BME280_pressure;Samples;Min_cycle;Max_cycle;Signal;HPM_P1;HPM_P2
2023/03/01 00:00:50;;;;;;;;;;;;;;;3.78;100.00;93918.03;5029718;28;19917;-58
2023/03/01 00:03:15;;;;;;;;;;;;;;;3.81;100.00;93914.31;5029291;28;19914;-56
2023/03/01 00:05:44;;;;;;;;;;;;;;;3.83;100.00;93915.31;5030066;28;19979;-58
2023/03/01 00:08:09;;;;;;;;;;;;;;;3.81;100.00;93906.13;5029496;28;19925;-57
2023/03/01 00:10:34;;;;;;;;;;;;;;;3.84;100.00;93899.66;5029078;28;19952;-56
2023/03/01 00:13:00;;;;;;;;;;;;;;;3.76;100.00;93890.47;5029438;28;19917;-57
2023/03/01 00:15:25;;;;;;;;;;;;;;;3.63;100.00;93895.66;5029958;28;19917;-56
2023/03/01 00:17:50;;;;;;;;;;;;;;;3.67;100.00;93890.69;5029171;28;19912;-57
2023/03/01 00:20:16;;;;;;;;;;;;;;;3.58;100.00;93896.38;5029366;28;19924;-57
2023/03/01 00:22:41;;;;;;;;;;;;;;;3.51;100.00;93894.88;5029218;28;20615;-57
2023/03/01 00:25:07;;;;;;;;;;;;;;;3.63;100.00;93895.66;5029195;28;19952;-57
2023/03/01 00:27:32;;;;;;;;;;;;;;;3.81;100.00;93889.75;5016292;28;19924;-57
2023/03/01 00:29:57;;;;;;;;;;;;;;;3.69;100.00;93893.69;5009437;28;19925;-56
2023/03/01 00:32:22;;;;;;;;;;;;;;;3.75;100.00;93884.25;5022777;28;19925;-56
2023/03/01 00:34:53;;;;;;;;;;;;;;;3.75;100.00;93888.97;5008977;28;20460;-57
2023/03/01 00:37:20;;;;;;;;;;;;;;;3.71;99.86;93886.50;5009310;28;20110;-57
2023/03/01 00:39:46;;;;;;;;;;;;;;;3.71;100.00;93877.53;5012218;28;19921;-56
2023/03/01 00:42:11;;;;;;;;;;;;;;;3.60;100.00;93885.72;5028658;28;19924;-57
2023/03/01 00:44:36;;;;;;;;;;;;;;;3.75;100.00;93878.81;5028281;28;19917;-57
2023/03/01 00:47:01;;;;;;;;;;;;;;;3.77;100.00;93879.06;5028886;28;19920;-57
2023/03/01 00:49:27;;;;;;;;;;;;;;;3.81;100.00;93876.09;5017740;28;19936;-56
2023/03/01 00:51:53;;;;;;;;;;;;;;;3.65;100.00;93877.56;5008795;28;19929;-57
2023/03/01 00:54:18;;;;;;;;;;;;;;;3.52;100.00;93871.06;5011469;28;20304;-57
2023/03/01 00:56:43;;;;;;;;;;;;;;;3.47;100.00;93871.78;5028543;28;20713;-57
2023/03/01 00:59:08;;;;;;;;;;;;;;;3.59;100.00;93854.97;5028876;28;19917;-56
2023/03/01 01:01:34;;;;;;;;;;;;;;;3.52;100.00;93858.16;5028210;28;20355;-57
2023/03/01 01:04:03;;;;;;;;;;;;;;;3.67;100.00;93866.13;5028471;28;19917;-57
2023/03/01 01:06:29;;;;;;;;;;;;;;;3.53;100.00;93869.84;5028654;28;19987;-56
2023/03/01 01:08:55;;;;;;;;;;;;;;;3.45;100.00;93864.09;5028838;28;19961;-56
2023/03/01 01:11:21;;;;;;;;;;;;;;;3.57;100.00;93868.31;5028444;28;20022;-56
2023/03/01 01:13:47;;;;;;;;;;;;;;;3.56;100.00;93868.84;5028188;28;19917;-56
2023/03/01 01:16:12;;;;;;;;;;;;;;;3.60;100.00;93866.59;5028130;28;19913;-57
2023/03/01 01:18:38;;;;;;;;;;;;;;;3.66;100.00;93861.91;5028718;28;19924;-57
2023/03/01 01:21:08;;;;;;;;;;;;;;;3.66;100.00;93864.66;5027225;28;20379;-57
2023/03/01 01:23:33;;;;;;;;;;;;;;;3.63;100.00;93871.84;5028045;28;19959;-57
2023/03/01 01:26:03;;;;;;;;;;;;;;;3.52;100.00;93871.81;5028166;28;19960;-57
2023/03/01 01:28:28;;;;;;;;;;;;;;;3.57;100.00;93875.78;5008794;28;19965;-57
2023/03/01 01:30:53;;;;;;;;;;;;;;;3.49;100.00;93880.22;5010159;28;20818;-57
2023/03/01 01:33:19;;;;;;;;;;;;;;;3.49;100.00;93883.69;5020563;28;19921;-57
2023/03/01 01:35:44;;;;;;;;;;;;;;;3.55;100.00;93875.53;5009141;28;19922;-57
2023/03/01 01:38:10;;;;;;;;;;;;;;;3.45;100.00;93874.25;5027759;28;19921;-57
2023/03/01 01:40:35;;;;;;;;;;;;;;;3.36;100.00;93877.22;5028815;28;19917;-56
2023/03/01 01:43:00;;;;;;;;;;;;;;;3.40;100.00;93872.28;5026631;28;20385;-56
2023/03/01 01:45:29;;;;;;;;;;;;;;;3.37;100.00;93873.25;5028081;28;19940;-56
2023/03/01 01:47:55;;;;;;;;;;;;;;;3.33;100.00;93878.22;5028071;28;20176;-56
2023/03/01 01:50:20;;;;;;;;;;;;;;;3.29;100.00;93872.25;5028235;28;20389;-57
2023/03/01 01:52:46;;;;;;;;;;;;;;;3.46;100.00;93870.31;5018909;28;19929;-57
2023/03/01 01:55:13;;;;;;;;;;;;;;;3.50;100.00;93876.28;5008049;28;20410;-57
2023/03/01 01:57:48;;;;;;;;;;;;;;;3.51;100.00;93877.78;5008472;28;19917;-56
2023/03/01 02:00:18;;;;;;;;;;;;;;;3.65;100.00;93872.09;5012381;28;20368;-57
2023/03/01 02:02:43;;;;;;;;;;;;;;;3.71;100.00;93872.09;5012482;28;19917;-57
2023/03/01 02:05:10;;;;;;;;;;;;;;;3.70;100.00;93868.59;5012012;28;19964;-57
2023/03/01 02:07:35;;;;;;;;;;;;;;;3.54;100.00;93869.34;5011031;28;19967;-57
2023/03/01 02:10:00;;;;;;;;;;;;;;;3.66;100.00;93870.84;5010513;28;19921;-57
2023/03/01 02:12:26;;;;;;;;;;;;;;;3.63;100.00;93862.91;5010975;28;19952;-56
2023/03/01 02:14:51;;;;;;;;;;;;;;;3.54;100.00;93866.59;5011746;28;19921;-56
2023/03/01 02:17:16;;;;;;;;;;;;;;;3.64;100.00;93856.94;5011754;28;19919;-57
2023/03/01 02:19:48;;;;;;;;;;;;;;;3.65;100.00;93863.91;5011694;28;19914;-57
2023/03/01 02:22:23;;;;;;;;;;;;;;;3.63;100.00;93858.19;5012254;28;19917;-57
2023/03/01 02:25:01;;;;;;;;;;;;;;;3.62;100.00;93858.66;5010631;28;19975;-57
2023/03/01 02:27:28;;;;;;;;;;;;;;;3.61;100.00;93852.47;5011508;28;20333;-56
2023/03/01 02:29:53;;;;;;;;;;;;;;;3.53;100.00;93848.00;5011402;28;19917;-57
2023/03/01 02:32:24;;;;;;;;;;;;;;;3.57;100.00;93848.50;5019267;28;19913;-57
2023/03/01 02:34:50;;;;;;;;;;;;;;;3.46;100.00;93841.03;5010516;28;19922;-57
2023/03/01 02:37:20;;;;;;;;;;;;;;;3.40;100.00;93842.97;5011135;28;20440;-56
2023/03/01 02:39:48;;;;;;;;;;;;;;;3.18;100.00;93842.94;5010164;28;19941;-56
2023/03/01 02:42:15;;;;;;;;;;;;;;;3.17;100.00;93857.06;5010555;28;19956;-57
2023/03/01 02:44:41;;;;;;;;;;;;;;;3.01;100.00;93850.31;5010610;28;19936;-56
2023/03/01 02:47:06;;;;;;;;;;;;;;;3.16;100.00;93848.16;5010969;28;20389;-57
2023/03/01 02:49:32;;;;;;;;;;;;;;;2.99;100.00;93848.06;5022993;28;20004;-57
2023/03/01 02:52:04;;;;;;;;;;;;;;;2.89;100.00;93852.25;5030856;28;19970;-57
2023/03/01 02:54:29;;;;;;;;;;;;;;;2.82;100.00;93849.97;5026677;28;20312;-57
2023/03/01 02:56:55;;;;;;;;;;;;;;;2.81;100.00;93845.78;5011338;28;19926;-57
2023/03/01 02:59:22;;;;;;;;;;;;;;;2.87;100.00;93849.28;5010023;28;20380;-57
2023/03/01 03:01:47;;;;;;;;;;;;;;;2.79;100.00;93855.69;5009922;28;20433;-57
2023/03/01 03:04:16;;;;;;;;;;;;;;;2.76;100.00;93851.19;5011625;28;19964;-57
2023/03/01 03:06:42;;;;;;;;;;;;;;;2.81;100.00;93842.28;5010764;28;19917;-57
2023/03/01 03:09:08;;;;;;;;;;;;;;;2.88;100.00;93847.28;5010354;28;19917;-57
2023/03/01 03:11:33;;;;;;;;;;;;;;;2.83;100.00;93846.03;5010092;28;19918;-57
2023/03/01 03:13:58;;;;;;;;;;;;;;;2.83;100.00;93848.75;5011222;28;20432;-55
2023/03/01 03:16:24;;;;;;;;;;;;;;;2.91;100.00;93849.78;5010767;28;19921;-56
2023/03/01 03:18:49;;;;;;;;;;;;;;;2.96;100.00;93848.31;5010491;28;19917;-57
2023/03/01 03:21:16;;;;;;;;;;;;;;;3.01;100.00;93848.31;5010612;28;19924;-57
2023/03/01 03:23:41;;;;;;;;;;;;;;;2.96;100.00;93842.84;5010781;28;19917;-57
2023/03/01 03:26:06;;;;;;;;;;;;;;;2.97;100.00;93849.78;5011429;28;20282;-57
2023/03/01 03:28:32;;;;;;;;;;;;;;;2.92;100.00;93848.53;5030234;28;20062;-57
2023/03/01 03:30:58;;;;;;;;;;;;;;;3.02;100.00;93840.88;5029819;28;19967;-57
2023/03/01 03:33:23;;;;;;;;;;;;;;;3.04;100.00;93849.31;5021948;28;20320;-57
2023/03/01 03:35:49;;;;;;;;;;;;;;;3.08;100.00;93852.56;5010303;28;19945;-57
2023/03/01 03:38:18;;;;;;;;;;;;;;;3.07;100.00;93848.34;5010515;28;19920;-57
2023/03/01 03:40:44;;;;;;;;;;;;;;;3.18;100.00;93850.38;5010154;28;20376;-56
2023/03/01 03:43:10;;;;;;;;;;;;;;;3.20;100.00;93853.34;5009789;28;19975;-56
2023/03/01 03:45:35;;;;;;;;;;;;;;;3.12;100.00;93855.06;5010175;28;19921;-57
2023/03/01 03:48:01;;;;;;;;;;;;;;;3.16;100.00;93852.84;5009519;28;19913;-57
2023/03/01 03:50:26;;;;;;;;;;;;;;;3.08;100.00;93853.31;5028887;28;19999;-57
2023/03/01 03:52:51;;;;;;;;;;;;;;;3.10;100.00;93863.00;5018826;28;19991;-57
2023/03/01 03:55:19;;;;;;;;;;;;;;;3.02;100.00;93855.28;5009524;28;19929;-56
2023/03/01 03:57:44;;;;;;;;;;;;;;;3.03;100.00;93856.03;5009768;28;20401;-57
2023/03/01 04:00:12;;;;;;;;;;;;;;;2.95;100.00;93858.47;5009802;28;19921;-57
2023/03/01 04:02:44;;;;;;;;;;;;;;;2.94;100.00;93856.25;5009217;28;19918;-57
2023/03/01 04:05:10;;;;;;;;;;;;;;;2.86;100.00;93866.84;5009496;28;19976;-57
2023/03/01 04:07:35;;;;;;;;;;;;;;;2.92;100.00;93864.16;5009631;28;19921;-56
2023/03/01 04:10:02;;;;;;;;;;;;;;;2.94;100.00;93865.16;5009709;28;19920;-57
2023/03/01 04:12:27;;;;;;;;;;;;;;;2.83;100.00;93862.38;5009128;28;19945;-56
2023/03/01 04:14:53;;;;;;;;;;;;;;;2.86;100.00;93866.09;5009211;28;19917;-57
2023/03/01 04:17:18;;;;;;;;;;;;;;;2.89;100.00;93863.16;5008085;28;20405;-56
2023/03/01 04:19:46;;;;;;;;;;;;;;;2.66;100.00;93863.53;5009220;28;19920;-57
2023/03/01 04:22:17;;;;;;;;;;;;;;;2.61;100.00;93870.44;5008572;28;19972;-57
2023/03/01 04:24:43;;;;;;;;;;;;;;;2.64;100.00;93863.28;5008793;28;19997;-56
2023/03/01 04:27:08;;;;;;;;;;;;;;;2.72;100.00;93859.59;5009127;28;19917;-57
2023/03/01 04:29:33;;;;;;;;;;;;;;;2.72;100.00;93859.59;5021091;28;20027;-57
2023/03/01 04:31:59;;;;;;;;;;;;;;;2.71;100.00;93852.66;5017938;28;20015;-56
2023/03/01 04:34:26;;;;;;;;;;;;;;;2.62;100.00;93850.13;5008854;28;19929;-57
2023/03/01 04:36:52;;;;;;;;;;;;;;;2.64;100.00;93850.38;5008777;28;20389;-57
2023/03/01 04:39:17;;;;;;;;;;;;;;;2.82;100.00;93851.94;5009432;28;19924;-57
2023/03/01 04:41:45;;;;;;;;;;;;;;;2.63;100.00;93854.34;5008813;28;20391;-57
2023/03/01 04:44:10;;;;;;;;;;;;;;;2.66;100.00;93849.91;5008542;28;19920;-57
2023/03/01 04:46:36;;;;;;;;;;;;;;;2.80;100.00;93846.25;5008747;28;19913;-57
2023/03/01 04:49:01;;;;;;;;;;;;;;;2.87;100.00;93853.97;5016604;28;19917;-56
2023/03/01 04:51:27;;;;;;;;;;;;;;;2.90;100.00;93851.00;5028735;28;20721;-57
2023/03/01 04:53:52;;;;;;;;;;;;;;;2.90;100.00;93856.44;5009761;28;19918;-57
2023/03/01 04:56:17;;;;;;;;;;;;;;;2.87;100.00;93849.28;5008202;28;19939;-57
2023/03/01 04:58:43;;;;;;;;;;;;;;;3.00;100.00;93851.53;5009022;28;19925;-57
2023/03/01 05:01:16;;;;;;;;;;;;;;;2.95;100.00;93850.28;5008738;28;20316;-57
2023/03/01 05:03:46;;;;;;;;;;;;;;;2.95;100.00;93846.81;5008549;28;19943;-57
2023/03/01 05:06:12;;;;;;;;;;;;;;;3.11;100.00;93843.41;5008484;28;20036;-56
2023/03/01 05:08:38;;;;;;;;;;;;;;;3.10;100.00;93841.19;5008789;28;20099;-57
2023/03/01 05:11:03;;;;;;;;;;;;;;;3.15;100.00;93852.09;5008324;28;19983;-57
2023/03/01 05:13:29;;;;;;;;;;;;;;;3.12;100.00;93850.34;5008512;28;19918;-57
2023/03/01 05:16:01;;;;;;;;;;;;;;;3.17;100.00;93854.31;5008388;28;20551;-57
2023/03/01 05:18:27;;;;;;;;;;;;;;;3.14;100.00;93852.59;5008287;28;19949;-57
2023/03/01 05:20:56;;;;;;;;;;;;;;;3.04;100.00;93858.25;5008409;28;19932;-57
2023/03/01 05:23:21;;;;;;;;;;;;;;;3.08;100.00;93856.03;5008261;28;19922;-57
2023/03/01 05:25:46;;;;;;;;;;;;;;;3.15;100.00;93854.81;5019523;28;19917;-57
2023/03/01 05:28:12;;;;;;;;;;;;;;;3.22;100.00;93859.06;5009485;28;20342;-57
2023/03/01 05:30:38;;;;;;;;;;;;;;;3.19;100.00;93855.34;5008159;28;19921;-57
2023/03/01 05:33:04;;;;;;;;;;;;;;;3.19;100.00;93854.59;5005522;28;20423;-57
2023/03/01 05:35:29;;;;;;;;;;;;;;;3.29;100.00;93867.50;5008072;28;19921;-56
2023/03/01 05:37:54;;;;;;;;;;;;;;;3.27;100.00;93864.53;5007938;28;19914;-57
2023/03/01 05:40:21;;;;;;;;;;;;;;;3.11;100.00;93867.97;5007911;28;19924;-57
2023/03/01 05:42:47;;;;;;;;;;;;;;;3.32;100.00;93868.50;5008059;28;19918;-57
2023/03/01 05:45:14;;;;;;;;;;;;;;;3.38;100.00;93861.84;5007768;28;19924;-57
2023/03/01 05:47:43;;;;;;;;;;;;;;;3.40;100.00;93869.56;5007989;28;19917;-57
2023/03/01 05:50:12;;;;;;;;;;;;;;;3.35;100.00;93873.00;5008175;28;19968;-57
2023/03/01 05:52:38;;;;;;;;;;;;;;;3.32;100.00;93882.16;5007771;28;19925;-57
2023/03/01 05:55:03;;;;;;;;;;;;;;;3.36;100.00;93879.94;5016607;28;19925;-57
2023/03/01 05:57:29;;;;;;;;;;;;;;;3.27;100.00;93872.00;5027918;28;19917;-56
2023/03/01 05:59:54;;;;;;;;;;;;;;;3.33;100.00;93881.69;5027286;28;19913;-57
2023/03/01 06:02:19;;;;;;;;;;;;;;;3.38;100.00;93883.66;5027347;28;19913;-57
2023/03/01 06:04:44;;;;;;;;;;;;;;;3.36;100.00;93877.97;5027736;28;19961;-57
2023/03/01 06:07:10;;;;;;;;;;;;;;;3.34;100.00;93887.88;5027274;28;19913;-57
2023/03/01 06:09:35;;;;;;;;;;;;;;;3.35;100.00;93892.09;5027918;28;19917;-57
2023/03/01 06:12:00;;;;;;;;;;;;;;;3.34;100.00;93887.88;5027222;28;19923;-57
2023/03/01 06:14:26;;;;;;;;;;;;;;;3.31;100.00;93894.31;5027461;28;19917;-57
2023/03/01 06:16:51;;;;;;;;;;;;;;;3.27;100.00;93894.53;5027612;28;20007;-57
2023/03/01 06:19:16;;;;;;;;;;;;;;;3.31;100.00;93895.09;5027632;28;19925;-57
2023/03/01 06:21:41;;;;;;;;;;;;;;;3.32;100.00;93890.34;5018088;28;19975;-57
2023/03/01 06:24:08;;;;;;;;;;;;;;;3.34;100.00;93896.81;5007889;28;19964;-57
2023/03/01 06:26:33;;;;;;;;;;;;;;;3.30;100.00;93890.84;5007412;28;19922;-57
2023/03/01 06:28:58;;;;;;;;;;;;;;;3.45;100.00;93893.38;5007875;28;20458;-57
2023/03/01 06:31:23;;;;;;;;;;;;;;;3.44;100.00;93891.88;5013388;28;19921;-57
2023/03/01 06:33:49;;;;;;;;;;;;;;;3.46;100.00;93897.59;5015793;28;19913;-57
2023/03/01 06:36:14;;;;;;;;;;;;;;;3.38;100.00;93899.31;5007538;28;19925;-56
2023/03/01 06:38:40;;;;;;;;;;;;;;;3.45;100.00;93898.81;5007994;28;20517;-57
2023/03/01 06:41:06;;;;;;;;;;;;;;;3.59;100.00;93903.34;5007711;28;19921;-57
2023/03/01 06:43:32;;;;;;;;;;;;;;;3.56;100.00;93896.13;5007754;28;20008;-57
2023/03/01 06:45:57;;;;;;;;;;;;;;;3.52;100.00;93895.63;5011481;28;20008;-56
2023/03/01 06:48:22;;;;;;;;;;;;;;;3.54;100.00;93895.88;5013589;28;19948;-57
2023/03/01 06:50:48;;;;;;;;;;;;;;;3.60;100.00;93893.91;5030724;28;19921;-57
2023/03/01 06:53:13;;;;;;;;;;;;;;;3.69;100.00;93896.41;5017696;28;20369;-57
2023/03/01 06:55:38;;;;;;;;;;;;;;;3.55;100.00;93905.56;5011267;28;19913;-55
2023/03/01 06:58:03;;;;;;;;;;;;;;;3.65;100.00;93901.38;5011333;28;19914;-56
2023/03/01 07:00:29;;;;;;;;;;;;;;;3.80;100.00;93899.16;5011172;28;20373;-57
2023/03/01 07:02:54;;;;;;;;;;;;;;;4.15;99.30;93891.25;5010982;28;19920;-57
2023/03/01 07:05:20;;;;;;;;;;;;;;;4.18;98.73;93889.53;5011441;28;19917;-57
2023/03/01 07:07:45;;;;;;;;;;;;;;;4.28;97.91;93888.03;5010790;28;20762;-57
2023/03/01 07:10:11;;;;;;;;;;;;;;;4.17;98.03;93888.78;5010798;28;19921;-57
2023/03/01 07:12:36;;;;;;;;;;;;;;;4.21;98.28;93886.53;5010801;28;20720;-57
2023/03/01 07:15:01;;;;;;;;;;;;;;;4.35;98.45;93884.81;5010835;28;19954;-57
2023/03/01 07:17:26;;;;;;;;;;;;;;;4.52;98.15;93883.56;5015281;28;20597;-57
2023/03/01 07:19:52;;;;;;;;;;;;;;;4.40;97.97;93890.25;5030873;28;19913;-57
2023/03/01 07:22:17;;;;;;;;;;;;;;;4.44;97.72;93890.75;5030281;28;20374;-57
2023/03/01 07:24:42;;;;;;;;;;;;;;;4.45;97.59;93894.22;5030019;28;19967;-57
2023/03/01 07:27:08;;;;;;;;;;;;;;;4.49;97.43;93894.72;5020675;28;19920;-57
2023/03/01 07:29:33;;;;;;;;;;;;;;;4.32;97.08;93896.72;5010646;28;19921;-57
2023/03/01 07:31:58;;;;;;;;;;;;;;;4.42;97.81;93898.72;5020528;28;19964;-57
2023/03/01 07:34:24;;;;;;;;;;;;;;;4.51;96.74;93898.47;5013684;28;19931;-57
2023/03/01 07:36:49;;;;;;;;;;;;;;;4.65;97.25;93890.50;5010438;28;20497;-57
2023/03/01 07:39:16;;;;;;;;;;;;;;;4.77;97.13;93889.22;5009759;28;20469;-57
2023/03/01 07:41:41;;;;;;;;;;;;;;;4.75;97.05;93891.69;5010386;28;19940;-57
2023/03/01 07:44:07;;;;;;;;;;;;;;;4.67;96.18;93890.72;5009874;28;19968;-57
2023/03/01 07:46:32;;;;;;;;;;;;;;;4.76;95.10;93893.22;5010272;28;19975;-57
2023/03/01 07:48:58;;;;;;;;;;;;;;;4.71;95.58;93883.00;5017085;28;19999;-57
2023/03/01 07:51:23;;;;;;;;;;;;;;;4.78;96.22;93887.97;5029365;28;19928;-57
2023/03/01 07:53:48;;;;;;;;;;;;;;;4.75;96.63;93886.22;5012011;28;19946;-57
2023/03/01 07:56:16;;;;;;;;;;;;;;;4.86;96.52;93886.22;5009195;28;19980;-57
2023/03/01 07:58:42;;;;;;;;;;;;;;;4.94;95.84;93892.66;5009538;28;19918;-57
2023/03/01 08:01:08;;;;;;;;;;;;;;;4.96;95.55;93887.44;5009910;28;19917;-57
2023/03/01 08:03:33;;;;;;;;;;;;;;;4.97;95.61;93878.72;5009746;28;19917;-57
2023/03/01 08:05:59;;;;;;;;;;;;;;;4.98;96.01;93880.19;5009963;28;19924;-57
2023/03/01 08:08:25;;;;;;;;;;;;;;;4.98;93.87;93884.94;5010041;28;20539;-57
2023/03/01 08:10:50;;;;;;;;;;;;;;;4.63;95.79;93876.56;5009754;28;20328;-57
2023/03/01 08:13:16;;;;;;;;;;;;;;;4.71;96.49;93877.53;5009486;28;20008;-57
2023/03/01 08:15:41;;;;;;;;;;;;;;;4.75;96.85;93872.56;5009784;28;19917;-58
2023/03/01 08:18:06;;;;;;;;;;;;;;;4.76;96.92;93872.06;5009547;28;19918;-57
2023/03/01 08:20:31;;;;;;;;;;;;;;;4.66;98.71;93864.66;5009790;28;20000;-57
2023/03/01 08:22:57;;;;;;;;;;;;;;;4.74;98.60;93868.34;5010096;28;19961;-57
2023/03/01 08:25:22;;;;;;;;;;;;;;;4.56;99.04;93873.09;5009628;28;19918;-57
2023/03/01 08:27:48;;;;;;;;;;;;;;;4.66;99.00;93873.56;5009209;28;19914;-57
2023/03/01 08:30:13;;;;;;;;;;;;;;;4.71;98.44;93874.81;5009877;28;19922;-57
2023/03/01 08:32:38;;;;;;;;;;;;;;;4.61;98.10;93875.06;5008887;28;20024;-57
2023/03/01 08:35:04;;;;;;;;;;;;;;;4.50;99.22;93866.88;5009388;28;19925;-57
2023/03/01 08:37:30;;;;;;;;;;;;;;;4.36;100.00;93873.38;5009710;28;19917;-57
2023/03/01 08:39:56;;;;;;;;;;;;;;;4.34;100.00;93869.63;5009297;28;19918;-56
2023/03/01 08:42:21;;;;;;;;;;;;;;;4.55;100.00;93868.13;5009205;28;19917;-57
2023/03/01 08:44:46;;;;;;;;;;;;;;;4.65;99.44;93869.38;5009185;28;19914;-56
2023/03/01 08:47:12;;;;;;;;;;;;;;;4.53;99.38;93868.63;5009048;28;19917;-57
2023/03/01 08:49:37;;;;;;;;;;;;;;;4.50;99.63;93875.06;5009014;28;19980;-57
2023/03/01 08:52:02;;;;;;;;;;;;;;;4.43;100.00;93875.59;5012603;28;19925;-57
2023/03/01 08:54:28;;;;;;;;;;;;;;;4.47;100.00;93878.81;5028502;28;19913;-57
2023/03/01 08:56:53;;;;;;;;;;;;;;;4.55;100.00;93877.06;5028424;28;19921;-57
2023/03/01 08:59:19;;;;;;;;;;;;;;;4.53;100.00;93874.09;5028496;28;20009;-57
2023/03/01 09:01:44;;;;;;;;;;;;;;;4.54;100.00;93872.88;5028421;28;19917;-57
2023/03/01 09:04:10;;;;;;;;;;;;;;;4.49;100.00;93879.06;5028315;28;20023;-57
2023/03/01 09:06:36;;;;;;;;;;;;;;;4.61;100.00;93875.06;5028754;28;19917;-57
2023/03/01 09:09:01;;;;;;;;;;;;;;;4.46;100.00;93877.31;5028005;28;19917;-57
2023/03/01 09:11:27;;;;;;;;;;;;;;;4.37;100.00;93883.06;5028423;28;19917;-57
2023/03/01 09:13:52;;;;;;;;;;;;;;;4.45;100.00;93877.84;5021987;28;19917;-57
2023/03/01 09:16:19;;;;;;;;;;;;;;;4.45;100.00;93875.84;5008553;28;19928;-57
2023/03/01 09:18:44;;;;;;;;;;;;;;;4.69;100.00;93872.59;5008530;28;19918;-57
2023/03/01 09:21:13;;;;;;;;;;;;;;;4.64;99.92;93878.78;5008922;28;19924;-57
2023/03/01 09:23:39;;;;;;;;;;;;;;;4.73;98.38;93886.00;5008605;28;20005;-57
2023/03/01 09:26:05;;;;;;;;;;;;;;;4.68;98.83;93878.56;5008246;28;19917;-57
2023/03/01 09:28:31;;;;;;;;;;;;;;;4.72;99.25;93885.25;5008300;28;19921;-57
2023/03/01 09:30:59;;;;;;;;;;;;;;;4.69;98.44;93880.03;5009956;28;19921;-57
2023/03/01 09:33:25;;;;;;;;;;;;;;;4.79;99.15;93878.50;5020028;28;19920;-57
2023/03/01 09:35:55;;;;;;;;;;;;;;;4.69;98.60;93875.31;5008026;28;19921;-57
2023/03/01 09:38:20;;;;;;;;;;;;;;;4.63;96.39;93871.84;5006770;28;20393;-57
2023/03/01 09:40:46;;;;;;;;;;;;;;;4.61;95.74;93869.59;5008345;28;19972;-57
2023/03/01 09:43:19;;;;;;;;;;;;;;;4.68;97.51;93868.34;5008279;28;19919;-57
2023/03/01 09:45:45;;;;;;;;;;;;;;;4.78;98.46;93863.38;5007210;28;19921;-56
2023/03/01 09:48:16;;;;;;;;;;;;;;;4.94;96.63;93868.03;5008111;28;19913;-57
2023/03/01 09:50:41;;;;;;;;;;;;;;;4.93;95.73;93859.09;5026224;28;19952;-57
2023/03/01 09:53:11;;;;;;;;;;;;;;;4.94;95.45;93865.28;5023507;28;19972;-57
2023/03/01 09:55:43;;;;;;;;;;;;;;;4.85;97.46;93857.38;5008455;28;20596;-57
2023/03/01 09:58:23;;;;;;;;;;;;;;;5.09;97.35;93846.59;5008111;28;20317;-57
2023/03/01 10:00:49;;;;;;;;;;;;;;;5.23;94.61;93851.03;5008099;28;19917;-57
2023/03/01 10:03:15;;;;;;;;;;;;;;;5.24;94.57;93852.53;5008125;28;19971;-57
2023/03/01 10:05:44;;;;;;;;;;;;;;;5.25;94.07;93846.53;5007819;28;20412;-57
2023/03/01 10:08:12;;;;;;;;;;;;;;;5.32;91.95;93848.00;5007961;28;19918;-57
2023/03/01 10:10:38;;;;;;;;;;;;;;;5.41;92.26;93850.44;5007550;28;19988;-57
2023/03/01 10:13:14;;;;;;;;;;;;;;;5.45;91.00;93850.91;5006403;28;20393;-57
2023/03/01 10:15:43;;;;;;;;;;;;;;;5.41;91.64;93841.47;5007198;28;20001;-57
2023/03/01 10:18:12;;;;;;;;;;;;;;;5.57;93.59;93835.91;5006610;28;20008;-57
2023/03/01 10:20:41;;;;;;;;;;;;;;;5.71;90.92;93834.09;5009634;28;20000;-57
2023/03/01 10:23:07;;;;;;;;;;;;;;;5.65;91.39;93836.84;5011664;28;19986;-57
2023/03/01 10:25:51;;;;;;;;;;;;;;;5.57;92.74;93824.19;5010270;28;19913;-57
2023/03/01 10:28:17;;;;;;;;;;;;;;;5.53;92.46;93832.69;5030378;28;19913;-56
2023/03/01 10:30:43;;;;;;;;;;;;;;;5.44;93.41;93826.75;5030490;28;19924;-57
2023/03/01 10:33:20;;;;;;;;;;;;;;;5.26;93.95;93833.59;5024613;28;20004;-57
2023/03/01 10:35:47;;;;;;;;;;;;;;;5.18;94.47;93829.88;5010143;28;19925;-57
2023/03/01 10:38:13;;;;;;;;;;;;;;;5.22;95.17;93828.38;5011412;28;20005;-57
2023/03/01 10:40:50;;;;;;;;;;;;;;;5.27;94.70;93829.59;5010918;28;19917;-57
2023/03/01 10:43:16;;;;;;;;;;;;;;;5.04;95.92;93823.50;5011484;28;20363;-57
2023/03/01 10:45:42;;;;;;;;;;;;;;;5.07;96.20;93817.00;5009835;28;19998;-57
2023/03/01 10:48:23;;;;;;;;;;;;;;;5.12;96.41;93818.22;5011272;28;19956;-57
2023/03/01 10:50:49;;;;;;;;;;;;;;;5.08;96.59;93806.78;5030773;28;19918;-56
2023/03/01 10:53:26;;;;;;;;;;;;;;;5.04;96.32;93812.53;5029236;28;20320;-57
2023/03/01 10:56:20;;;;;;;;;;;;;;;5.09;96.77;93813.78;5025946;28;19972;-56
2023/03/01 10:59:12;;;;;;;;;;;;;;;5.09;96.98;93811.03;4993788;28;20571;-57
2023/03/01 11:01:37;;;;;;;;;;;;;;;4.86;96.23;93796.69;5006722;28;19918;-57
2023/03/01 11:04:08;;;;;;;;;;;;;;;4.90;97.75;93797.16;5010993;28;20121;-57
2023/03/01 11:06:34;;;;;;;;;;;;;;;4.66;97.08;93788.06;5009435;28;19929;-56
2023/03/01 11:09:15;;;;;;;;;;;;;;;4.76;96.47;93783.78;5010696;28;19920;-57
2023/03/01 11:11:40;;;;;;;;;;;;;;;4.65;98.17;93792.03;5010672;28;19922;-56
2023/03/01 11:14:07;;;;;;;;;;;;;;;4.65;97.71;93783.84;5010600;28;19921;-57
2023/03/01 11:16:36;;;;;;;;;;;;;;;4.70;98.95;93788.56;5010285;28;19917;-56
2023/03/01 11:19:14;;;;;;;;;;;;;;;4.72;98.86;93780.59;5009322;28;20405;-57
2023/03/01 11:21:45;;;;;;;;;;;;;;;4.70;98.10;93780.34;5010816;28;19948;-57
2023/03/01 11:24:11;;;;;;;;;;;;;;;4.80;98.41;93776.81;5010169;28;19924;-56
2023/03/01 11:26:38;;;;;;;;;;;;;;;4.82;99.02;93774.31;5010927;28;20386;-57
2023/03/01 11:29:05;;;;;;;;;;;;;;;4.63;97.90;93774.13;5008869;28;19917;-57
2023/03/01 11:31:30;;;;;;;;;;;;;;;4.53;99.77;93763.97;5014130;28;20309;-57
2023/03/01 11:33:58;;;;;;;;;;;;;;;4.68;100.00;93767.16;5025945;28;19918;-57
2023/03/01 11:36:24;;;;;;;;;;;;;;;4.76;99.00;93761.91;5009824;28;19936;-57
2023/03/01 11:38:49;;;;;;;;;;;;;;;4.53;99.85;93764.72;5010297;28;19918;-57
2023/03/01 11:41:18;;;;;;;;;;;;;;;4.72;99.65;93764.16;5009312;28;19925;-57
2023/03/01 11:43:58;;;;;;;;;;;;;;;4.65;99.24;93762.72;5008788;28;20012;-57
2023/03/01 11:46:32;;;;;;;;;;;;;;;4.73;99.27;93757.44;5009705;28;19921;-56
2023/03/01 11:49:07;;;;;;;;;;;;;;;4.72;98.64;93756.69;5010468;28;19952;-57
2023/03/01 11:51:51;;;;;;;;;;;;;;;4.71;98.38;93754.47;5008645;28;19921;-57
2023/03/01 11:54:19;;;;;;;;;;;;;;;4.67;98.93;93762.19;5010386;28;19925;-57
2023/03/01 11:56:55;;;;;;;;;;;;;;;4.64;98.20;93758.47;5009582;28;19917;-57
2023/03/01 11:59:29;;;;;;;;;;;;;;;4.67;97.91;93768.41;5008766;28;20368;-57
2023/03/01 12:01:57;;;;;;;;;;;;;;;4.50;99.61;93765.00;5010198;28;20013;-55
2023/03/01 12:04:28;;;;;;;;;;;;;;;4.75;98.36;93768.63;5009604;28;19960;-57
2023/03/01 12:06:57;;;;;;;;;;;;;;;4.68;96.89;93761.69;5008647;28;20355;-57
2023/03/01 12:09:26;;;;;;;;;;;;;;;4.33;97.74;93762.28;5008639;28;20475;-57
2023/03/01 12:12:04;;;;;;;;;;;;;;;4.43;99.36;93765.50;5009367;28;19968;-56
2023/03/01 12:14:49;;;;;;;;;;;;;;;4.48;99.71;93767.50;5008439;28;19924;-56
2023/03/01 12:17:17;;;;;;;;;;;;;;;4.47;98.28;93769.47;5009261;28;20578;-57
2023/03/01 12:19:45;;;;;;;;;;;;;;;4.41;98.95;93770.72;5008244;28;19917;-57
2023/03/01 12:22:30;;;;;;;;;;;;;;;4.37;99.69;93765.53;5009549;28;19914;-57
2023/03/01 12:25:12;;;;;;;;;;;;;;;4.26;100.00;93764.81;5009283;28;19918;-56
2023/03/01 12:27:56;;;;;;;;;;;;;;;4.19;100.00;93757.84;5022723;28;19948;-57
2023/03/01 12:30:21;;;;;;;;;;;;;;;4.45;100.00;93755.56;5028955;28;20481;-57
2023/03/01 12:33:07;;;;;;;;;;;;;;;4.48;100.00;93762.03;5025393;28;19921;-57
2023/03/01 12:35:42;;;;;;;;;;;;;;;4.44;100.00;93756.78;5008671;28;19936;-56
2023/03/01 12:38:19;;;;;;;;;;;;;;;4.49;100.00;93764.25;5007372;28;19921;-57
2023/03/01 12:40:53;;;;;;;;;;;;;;;4.39;100.00;93754.84;5009073;28;19921;-56
2023/03/01 12:43:28;;;;;;;;;;;;;;;4.53;99.99;93737.38;5007844;28;19917;-57
2023/03/01 12:46:06;;;;;;;;;;;;;;;4.42;100.00;93737.41;5008480;28;19924;-56
2023/03/01 12:48:47;;;;;;;;;;;;;;;4.45;100.00;93744.63;5012321;28;20000;-56
2023/03/01 12:51:14;;;;;;;;;;;;;;;4.67;100.00;93743.81;5028943;28;19921;-56